createdAt,value
2022-12-23T00:01:59.750Z,19.40
2022-12-23T00:04:30.785Z,19.30
2022-12-23T00:07:04.179Z,19.40
2022-12-23T00:09:34.985Z,19.40
2022-12-23T00:12:23.788Z,19.40
2022-12-23T00:15:09.578Z,19.40
2022-12-23T00:17:47.613Z,19.40
2022-12-23T00:20:20.433Z,19.40
2022-12-23T00:23:09.436Z,19.40
2022-12-23T00:25:59.321Z,19.40
2022-12-23T00:28:31.203Z,19.40
2022-12-23T00:31:07.795Z,19.40
2022-12-23T00:33:41.162Z,19.40
2022-12-23T00:36:17.491Z,19.40
2022-12-23T00:39:06.344Z,19.40
2022-12-23T00:41:54.883Z,19.50
2022-12-23T00:44:25.886Z,19.40
2022-12-23T00:46:56.579Z,19.50
2022-12-23T00:49:45.720Z,19.50
2022-12-23T00:52:23.720Z,19.50
2022-12-23T00:54:54.394Z,19.60
2022-12-23T00:57:26.348Z,19.60
2022-12-23T00:59:58.618Z,19.60
2022-12-23T01:02:46.857Z,19.70
2022-12-23T01:05:37.344Z,19.80
2022-12-23T01:08:16.276Z,19.80
2022-12-23T01:10:48.469Z,19.80
2022-12-23T01:13:19.281Z,19.90
2022-12-23T01:15:59.756Z,19.90
2022-12-23T01:18:30.705Z,20.00
2022-12-23T01:21:09.633Z,20.00
2022-12-23T01:23:40.444Z,20.00
2022-12-23T01:26:11.872Z,20.00
2022-12-23T01:28:42.951Z,20.10
2022-12-23T01:31:13.985Z,20.10
2022-12-23T01:33:48.533Z,20.20
2022-12-23T01:36:22.587Z,20.30
2022-12-23T01:38:59.999Z,20.30
2022-12-23T01:41:51.504Z,20.40
2022-12-23T01:44:58.194Z,20.40
2022-12-23T01:47:50.635Z,20.50
2022-12-23T01:50:26.827Z,20.60
2022-12-23T01:53:08.146Z,20.70
2022-12-23T01:55:56.094Z,20.70
2022-12-23T01:58:32.223Z,20.80
2022-12-23T02:01:21.395Z,20.90
2022-12-23T02:03:55.178Z,20.90
2022-12-23T02:06:52.269Z,21.00
2022-12-23T02:09:34.981Z,21.00
2022-12-23T02:12:13.954Z,21.10
2022-12-23T02:15:07.245Z,21.20
2022-12-23T02:18:00.362Z,21.20
2022-12-23T02:20:53.521Z,21.30
2022-12-23T02:23:59.712Z,21.30
2022-12-23T02:27:06.101Z,21.40
2022-12-23T02:29:46.733Z,21.50
2022-12-23T02:32:29.633Z,21.50
2022-12-23T02:35:11.546Z,21.60
2022-12-23T02:37:51.067Z,21.60
2022-12-23T02:40:25.097Z,21.60
2022-12-23T02:43:01.312Z,21.70
2022-12-23T02:45:41.013Z,21.70
2022-12-23T02:48:36.758Z,21.80
2022-12-23T02:51:11.490Z,21.80
2022-12-23T02:53:45.299Z,21.90
2022-12-23T02:56:35.675Z,22.00
2022-12-23T02:59:31.188Z,22.00
2022-12-23T03:02:07.347Z,22.10
2022-12-23T03:04:53.269Z,22.10
2022-12-23T03:07:37.281Z,22.20
2022-12-23T03:10:42.525Z,22.20
2022-12-23T03:13:43.470Z,22.30
2022-12-23T03:16:28.142Z,22.40
2022-12-23T03:19:04.688Z,22.50
2022-12-23T03:21:50.340Z,22.60
2022-12-23T03:24:49.832Z,22.60
2022-12-23T03:27:42.250Z,22.70
2022-12-23T03:30:15.759Z,22.70
2022-12-23T03:32:51.454Z,22.80
2022-12-23T03:35:27.777Z,23.00
2022-12-23T03:38:06.347Z,23.00
2022-12-23T03:40:45.705Z,23.10
2022-12-23T03:43:25.343Z,23.20
2022-12-23T03:46:04.590Z,23.30
2022-12-23T03:48:42.793Z,23.30
2022-12-23T03:51:22.598Z,23.40
2022-12-23T03:54:00.800Z,23.50
2022-12-23T03:56:37.170Z,23.60
2022-12-23T03:59:23.514Z,23.70
2022-12-23T04:02:22.419Z,23.80
2022-12-23T04:05:15.244Z,23.90
2022-12-23T04:10:52.783Z,24.20
2022-12-23T04:13:26.455Z,24.30
2022-12-23T04:15:59.058Z,24.40
2022-12-23T04:18:31.540Z,24.60
2022-12-23T04:21:04.695Z,24.70
2022-12-23T04:23:35.985Z,24.70
2022-12-23T04:26:07.517Z,24.80
2022-12-23T04:28:39.029Z,24.90
2022-12-23T04:31:10.448Z,25.10
2022-12-23T04:33:43.833Z,25.20
2022-12-23T04:36:15.898Z,25.30
2022-12-23T04:38:46.882Z,25.50
2022-12-23T04:41:19.377Z,25.50
2022-12-23T04:43:53.006Z,25.70
2022-12-23T04:46:26.195Z,25.70
2022-12-23T04:49:02.968Z,25.80
2022-12-23T04:51:33.836Z,25.90
2022-12-23T04:54:05.140Z,25.90
2022-12-23T04:56:41.069Z,26.00
2022-12-23T04:59:13.467Z,26.00
2022-12-23T05:01:46.493Z,26.10
2022-12-23T05:04:18.277Z,26.20
2022-12-23T05:06:51.171Z,26.20
2022-12-23T05:09:22.653Z,26.30
2022-12-23T05:11:55.416Z,26.40
2022-12-23T05:14:26.492Z,26.50
2022-12-23T05:17:03.634Z,26.60
2022-12-23T05:19:30.290Z,26.70
2022-12-23T05:22:06.846Z,26.80
2022-12-23T05:24:40.431Z,26.80
2022-12-23T05:27:11.434Z,26.90
2022-12-23T05:29:42.597Z,27.00
2022-12-23T05:32:28.222Z,27.00
2022-12-23T05:35:02.609Z,27.10
2022-12-23T05:37:33.975Z,27.20
2022-12-23T05:40:05.761Z,27.10
2022-12-23T05:42:36.919Z,27.20
2022-12-23T05:45:09.591Z,27.30
2022-12-23T05:47:40.923Z,27.40
2022-12-23T05:50:12.670Z,27.50
2022-12-23T05:52:44.763Z,27.60
2022-12-23T05:55:18.771Z,27.60
2022-12-23T05:57:49.993Z,27.50
2022-12-23T06:00:23.553Z,27.50
2022-12-23T06:02:54.626Z,27.40
2022-12-23T06:05:25.882Z,27.50
2022-12-23T06:08:07.697Z,27.60
2022-12-23T06:10:42.965Z,27.70
2022-12-23T06:13:16.610Z,27.60
2022-12-23T06:15:47.681Z,27.70
2022-12-23T06:18:18.590Z,27.70
2022-12-23T06:20:53.340Z,27.70
2022-12-23T06:23:27.149Z,27.60
2022-12-23T06:26:04.744Z,27.60
2022-12-23T06:28:38.982Z,27.50
2022-12-23T06:31:09.935Z,27.60
2022-12-23T06:33:42.563Z,27.60
2022-12-23T06:36:18.784Z,27.70
2022-12-23T06:38:50.156Z,27.80
2022-12-23T06:41:24.366Z,27.80
2022-12-23T06:43:54.776Z,27.80
2022-12-23T06:46:26.571Z,27.80
2022-12-23T06:48:58.468Z,27.70
2022-12-23T06:51:29.825Z,27.80
2022-12-23T06:54:04.251Z,27.70
2022-12-23T06:56:36.142Z,27.80
2022-12-23T06:59:07.110Z,27.80
2022-12-23T07:01:38.523Z,27.80
2022-12-23T07:04:12.161Z,27.80
2022-12-23T07:06:43.165Z,27.90
2022-12-23T07:09:14.462Z,27.80
2022-12-23T07:11:45.329Z,27.80
2022-12-23T07:14:16.141Z,27.80
2022-12-23T07:16:47.401Z,27.90
2022-12-23T07:19:20.849Z,27.80
2022-12-23T07:21:54.531Z,27.80
2022-12-23T07:24:25.443Z,27.80
2022-12-23T07:26:57.197Z,27.80
2022-12-23T07:29:27.969Z,27.80
2022-12-23T07:31:59.338Z,27.80
2022-12-23T07:34:30.200Z,27.80
2022-12-23T07:37:21.477Z,27.80
2022-12-23T07:39:52.457Z,27.90
2022-12-23T07:44:55.832Z,27.90
2022-12-23T07:47:27.252Z,27.90
2022-12-23T07:49:58.904Z,27.90
2022-12-23T07:52:35.013Z,27.90
2022-12-23T07:55:05.039Z,27.90
2022-12-23T07:57:38.237Z,27.90
2022-12-23T08:00:12.631Z,27.80
2022-12-23T08:02:44.720Z,27.80
2022-12-23T08:05:23.537Z,27.80
2022-12-23T08:07:54.972Z,27.80
2022-12-23T08:10:26.046Z,27.80
2022-12-23T08:12:57.025Z,27.80
2022-12-23T08:15:27.959Z,27.80
2022-12-23T08:17:59.434Z,27.80
2022-12-23T08:20:30.893Z,27.90
2022-12-23T08:23:03.097Z,27.80
2022-12-23T08:25:35.844Z,27.90
2022-12-23T08:28:07.507Z,27.90
2022-12-23T08:30:38.951Z,27.90
2022-12-23T08:33:09.807Z,27.80
2022-12-23T08:35:40.755Z,27.80
2022-12-23T08:38:11.620Z,27.80
2022-12-23T08:40:45.474Z,27.80
2022-12-23T08:43:16.286Z,27.70
2022-12-23T08:45:47.328Z,27.70
2022-12-23T08:48:18.278Z,27.70
2022-12-23T08:50:49.604Z,27.70
2022-12-23T08:53:20.831Z,27.70
2022-12-23T08:55:52.323Z,27.60
2022-12-23T08:58:28.402Z,27.60
2022-12-23T09:01:02.519Z,27.60
2022-12-23T09:03:35.349Z,27.50
2022-12-23T09:06:11.707Z,27.50
2022-12-23T09:08:43.970Z,27.50
2022-12-23T09:11:17.208Z,27.50
2022-12-23T09:13:48.542Z,27.50
2022-12-23T09:16:19.799Z,27.50
2022-12-23T09:18:52.794Z,27.40
2022-12-23T09:21:25.737Z,27.40
2022-12-23T09:23:56.628Z,27.40
2022-12-23T09:26:29.962Z,27.30
2022-12-23T09:29:01.096Z,27.30
2022-12-23T09:31:36.774Z,27.30
2022-12-23T09:34:06.870Z,27.20
2022-12-23T09:36:40.873Z,27.20
2022-12-23T09:39:13.718Z,27.20
2022-12-23T09:42:00.350Z,27.20
2022-12-23T09:44:43.905Z,27.10
2022-12-23T09:47:17.312Z,27.10
2022-12-23T09:49:50.677Z,27.00
2022-12-23T09:52:27.575Z,27.00
2022-12-23T09:55:01.603Z,27.00
2022-12-23T09:57:50.744Z,27.00
2022-12-23T10:00:23.879Z,26.90
2022-12-23T10:03:12.219Z,26.90
2022-12-23T10:06:06.902Z,26.90
2022-12-23T10:08:40.256Z,26.80
2022-12-23T10:11:19.815Z,26.80
2022-12-23T10:13:53.176Z,26.70
2022-12-23T10:16:44.379Z,26.70
2022-12-23T10:19:29.800Z,26.60
2022-12-23T10:22:09.747Z,26.60
2022-12-23T10:24:43.490Z,26.60
2022-12-23T10:27:34.586Z,26.50
2022-12-23T10:30:42.566Z,26.50
2022-12-23T10:33:10.647Z,26.50
2022-12-23T10:36:02.125Z,26.40
2022-12-23T10:38:50.825Z,26.40
2022-12-23T10:41:27.326Z,26.40
2022-12-23T10:44:33.354Z,26.30
2022-12-23T10:47:07.426Z,26.30
2022-12-23T10:49:53.667Z,26.20
2022-12-23T10:52:29.467Z,26.20
2022-12-23T10:55:00.404Z,26.20
2022-12-23T10:57:32.949Z,26.10
2022-12-23T11:00:04.548Z,26.10
2022-12-23T11:02:43.599Z,26.10
2022-12-23T11:05:20.189Z,26.00
2022-12-23T11:07:51.642Z,26.00
2022-12-23T11:10:25.362Z,26.00
2022-12-23T11:12:57.270Z,25.90
2022-12-23T11:15:48.379Z,25.90
2022-12-23T11:18:23.877Z,25.90
2022-12-23T11:21:09.388Z,25.90
2022-12-23T11:23:40.318Z,25.80
2022-12-23T11:26:20.432Z,25.80
2022-12-23T11:28:53.817Z,25.80
2022-12-23T11:31:45.065Z,25.70
2022-12-23T11:34:21.849Z,25.70
2022-12-23T11:37:03.616Z,25.70
2022-12-23T11:39:37.468Z,25.70
2022-12-23T11:42:19.644Z,25.60
2022-12-23T11:44:53.542Z,25.60
2022-12-23T11:47:33.022Z,25.60
2022-12-23T11:50:07.291Z,25.60
2022-12-23T11:52:39.147Z,25.60
2022-12-23T11:55:12.133Z,25.50
2022-12-23T11:57:48.345Z,25.50
2022-12-23T12:00:24.630Z,25.50
2022-12-23T12:03:03.753Z,25.50
2022-12-23T12:05:41.754Z,25.50
2022-12-23T12:08:17.283Z,25.40
2022-12-23T12:10:48.410Z,25.40
2022-12-23T12:13:27.529Z,25.40
2022-12-23T12:16:09.600Z,25.40
2022-12-23T12:18:42.498Z,25.30
2022-12-23T12:21:15.817Z,25.30
2022-12-23T12:24:08.324Z,25.30
2022-12-23T12:26:29.841Z,25.30
2022-12-23T12:29:18.375Z,25.30
2022-12-23T12:31:54.855Z,25.30
2022-12-23T12:34:47.560Z,25.20
2022-12-23T12:37:32.280Z,25.30
2022-12-23T12:40:18.411Z,25.20
2022-12-23T12:43:04.898Z,25.20
2022-12-23T12:45:35.976Z,25.10
2022-12-23T12:48:27.484Z,25.10
2022-12-23T12:51:03.457Z,25.10
2022-12-23T12:53:35.991Z,25.10
2022-12-23T12:56:09.429Z,25.10
2022-12-23T12:58:44.198Z,25.10
2022-12-23T13:01:29.684Z,25.10
2022-12-23T13:04:49.426Z,25.00
2022-12-23T13:07:20.583Z,25.00
2022-12-23T13:09:56.833Z,25.00
2022-12-23T13:12:49.817Z,25.00
2022-12-23T13:15:45.424Z,25.00
2022-12-23T13:18:25.047Z,24.90
2022-12-23T13:21:14.605Z,24.90
2022-12-23T13:24:09.177Z,24.90
2022-12-23T13:26:59.050Z,24.90
2022-12-23T13:29:58.339Z,24.80
2022-12-23T13:33:03.468Z,24.80
2022-12-23T13:36:13.123Z,24.80
2022-12-23T13:38:52.888Z,24.70
2022-12-23T13:41:43.945Z,24.70
2022-12-23T13:44:16.319Z,24.60
2022-12-23T13:47:07.413Z,24.60
2022-12-23T13:49:52.655Z,24.60
2022-12-23T13:53:01.071Z,24.50
2022-12-23T13:55:37.556Z,24.50
2022-12-23T13:58:27.692Z,24.40
2022-12-23T14:01:07.964Z,24.40
2022-12-23T14:03:41.909Z,24.40
2022-12-23T14:06:24.818Z,24.30
2022-12-23T14:08:57.700Z,24.20
2022-12-23T14:11:33.558Z,24.20
2022-12-23T14:14:06.467Z,24.10
2022-12-23T14:16:59.092Z,24.00
2022-12-23T14:19:39.733Z,24.00
2022-12-23T14:22:29.926Z,24.00
2022-12-23T14:25:15.123Z,24.00
2022-12-23T14:27:51.370Z,23.90
2022-12-23T14:30:45.226Z,23.90
2022-12-23T14:33:25.286Z,23.90
2022-12-23T14:36:18.553Z,23.90
2022-12-23T14:38:55.031Z,23.80
2022-12-23T14:41:28.459Z,23.80
2022-12-23T14:44:00.543Z,23.80
2022-12-23T14:46:40.087Z,23.70
2022-12-23T14:49:41.460Z,23.70
2022-12-23T14:52:03.809Z,23.60
2022-12-23T14:54:55.116Z,23.50
2022-12-23T14:57:21.050Z,23.50
2022-12-23T15:00:00.449Z,23.50
2022-12-23T15:02:39.405Z,23.50
2022-12-23T15:05:11.184Z,23.50
2022-12-23T15:07:46.643Z,23.40
2022-12-23T15:10:20.103Z,23.40
2022-12-23T15:12:55.220Z,23.40
2022-12-23T15:15:30.544Z,23.40
2022-12-23T15:18:09.719Z,23.40
2022-12-23T15:20:42.521Z,23.40
2022-12-23T15:23:16.736Z,23.40
2022-12-23T15:25:50.965Z,23.40
2022-12-23T15:28:24.211Z,23.30
2022-12-23T15:30:58.211Z,23.30
2022-12-23T15:36:05.912Z,23.30
2022-12-23T15:38:39.399Z,23.30
2022-12-23T15:41:19.641Z,23.30
2022-12-23T15:43:50.700Z,23.30
2022-12-23T15:46:29.266Z,23.20
2022-12-23T15:49:00.154Z,23.20
2022-12-23T15:54:13.577Z,23.10
2022-12-23T15:56:47.585Z,23.10
2022-12-23T15:59:32.660Z,23.10
2022-12-23T16:02:59.303Z,23.10
2022-12-23T16:05:01.716Z,23.10
2022-12-23T16:07:45.100Z,23.10
2022-12-23T16:10:21.040Z,23.00
2022-12-23T16:12:56.570Z,23.00
2022-12-23T16:15:34.043Z,23.00
2022-12-23T16:18:33.047Z,22.90
2022-12-23T16:21:09.810Z,22.80
2022-12-23T16:23:58.286Z,22.90
2022-12-23T16:26:38.014Z,22.80
2022-12-23T16:29:13.235Z,22.80
2022-12-23T16:31:52.175Z,22.70
2022-12-23T16:34:16.660Z,22.70
2022-12-23T16:36:57.272Z,22.70
2022-12-23T16:39:37.604Z,22.70
2022-12-23T16:42:07.196Z,22.60
2022-12-23T16:44:41.422Z,22.60
2022-12-23T16:47:15.053Z,22.60
2022-12-23T16:49:48.280Z,22.60
2022-12-23T16:52:19.819Z,22.60
2022-12-23T16:54:50.646Z,22.60
2022-12-23T16:57:21.503Z,22.60
2022-12-23T16:59:52.455Z,22.60
2022-12-23T17:02:36.354Z,22.50
2022-12-23T17:05:14.858Z,22.50
2022-12-23T17:07:45.949Z,22.50
2022-12-23T17:10:19.076Z,22.50
2022-12-23T17:12:51.743Z,22.40
2022-12-23T17:15:25.355Z,22.40
2022-12-23T17:17:57.627Z,22.40
2022-12-23T17:20:28.892Z,22.40
2022-12-23T17:23:02.211Z,22.40
2022-12-23T17:25:34.848Z,22.30
2022-12-23T17:28:07.076Z,22.30
2022-12-23T17:30:39.039Z,22.20
2022-12-23T17:33:18.738Z,22.20
2022-12-23T17:35:49.953Z,22.20
2022-12-23T17:38:23.455Z,22.10
2022-12-23T17:40:56.205Z,22.10
2022-12-23T17:43:27.364Z,22.10
2022-12-23T17:45:58.646Z,22.10
2022-12-23T17:48:33.725Z,22.00
2022-12-23T17:51:07.146Z,22.00
2022-12-23T17:53:38.123Z,22.00
2022-12-23T17:56:24.044Z,21.90
2022-12-23T17:58:57.457Z,22.00
2022-12-23T18:01:31.013Z,21.90
2022-12-23T18:04:04.740Z,21.90
2022-12-23T18:06:35.911Z,21.80
2022-12-23T18:09:06.823Z,21.80
2022-12-23T18:11:40.055Z,21.80
2022-12-23T18:14:13.437Z,21.80
2022-12-23T18:16:44.461Z,21.80
2022-12-23T18:19:20.858Z,21.70
2022-12-23T18:21:53.919Z,21.70
2022-12-23T18:24:24.887Z,21.70
2022-12-23T18:26:55.688Z,21.70
2022-12-23T18:29:31.452Z,21.70
2022-12-23T18:32:03.091Z,21.60
2022-12-23T18:34:34.163Z,21.60
2022-12-23T18:37:05.141Z,21.60
2022-12-23T18:39:37.776Z,21.50
2022-12-23T18:42:09.220Z,21.50
2022-12-23T18:44:40.270Z,21.50
2022-12-23T18:47:11.606Z,21.50
2022-12-23T18:49:43.297Z,21.50
2022-12-23T18:52:15.217Z,21.50
2022-12-23T18:54:46.285Z,21.50
2022-12-23T18:57:17.162Z,21.40
2022-12-23T18:59:48.056Z,21.40
2022-12-23T19:02:19.147Z,21.40
2022-12-23T19:04:50.109Z,21.40
2022-12-23T19:07:21.167Z,21.40
2022-12-23T19:09:52.358Z,21.30
2022-12-23T19:12:23.330Z,21.30
2022-12-23T19:15:00.343Z,21.30
2022-12-23T19:17:29.110Z,21.30
2022-12-23T19:20:00.101Z,21.20
2022-12-23T19:22:30.932Z,21.20
2022-12-23T19:25:06.583Z,21.20
2022-12-23T19:27:37.288Z,21.20
2022-12-23T19:30:09.406Z,21.20
2022-12-23T19:32:40.327Z,21.20
2022-12-23T19:35:13.332Z,21.10
2022-12-23T19:37:45.230Z,21.10
2022-12-23T19:40:16.273Z,21.10
2022-12-23T19:42:47.127Z,21.10
2022-12-23T19:45:18.272Z,21.10
2022-12-23T19:47:49.194Z,21.10
2022-12-23T19:50:23.101Z,21.10
2022-12-23T19:52:54.041Z,21.10
2022-12-23T19:55:30.521Z,21.00
2022-12-23T19:58:01.520Z,21.00
2022-12-23T20:00:34.847Z,21.00
2022-12-23T20:03:05.965Z,21.00
2022-12-23T20:05:36.913Z,21.00
2022-12-23T20:08:10.754Z,21.00
2022-12-23T20:10:42.784Z,20.90
2022-12-23T20:13:13.702Z,20.90
2022-12-23T20:15:44.749Z,20.90
2022-12-23T20:18:15.955Z,20.90
2022-12-23T20:20:48.662Z,20.90
2022-12-23T20:23:19.744Z,20.90
2022-12-23T20:28:35.970Z,20.80
2022-12-23T20:31:15.592Z,20.80
2022-12-23T20:33:46.582Z,20.80
2022-12-23T20:36:20.426Z,20.80
2022-12-23T20:38:52.972Z,20.80
2022-12-23T20:41:25.919Z,20.70
2022-12-23T20:44:32.472Z,20.70
2022-12-23T20:46:29.794Z,20.80
2022-12-23T20:49:00.934Z,20.70
2022-12-23T20:51:31.756Z,20.70
2022-12-23T20:54:02.627Z,20.70
2022-12-23T20:56:33.641Z,20.70
2022-12-23T20:59:04.981Z,20.70
2022-12-23T21:01:38.955Z,20.70
2022-12-23T21:04:12.971Z,20.70
2022-12-23T21:06:45.691Z,20.70
2022-12-23T21:09:17.888Z,20.70
2022-12-23T21:11:49.768Z,20.70
2022-12-23T21:14:20.794Z,20.70
2022-12-23T21:16:51.858Z,20.70
2022-12-23T21:19:25.597Z,20.60
2022-12-23T21:21:56.487Z,20.60
2022-12-23T21:24:27.491Z,20.60
2022-12-23T21:26:58.942Z,20.60
2022-12-23T21:29:30.054Z,20.60
2022-12-23T21:32:03.475Z,20.60
2022-12-23T21:34:34.485Z,20.60
2022-12-23T21:37:05.306Z,20.60
2022-12-23T21:39:36.515Z,20.60
2022-12-23T21:42:08.425Z,20.60
2022-12-23T21:44:39.353Z,20.50
2022-12-23T21:47:10.442Z,20.50
2022-12-23T21:49:42.772Z,20.50
2022-12-23T21:52:13.731Z,20.50
2022-12-23T21:54:44.588Z,20.50
2022-12-23T21:57:15.688Z,20.50
2022-12-23T21:59:46.579Z,20.50
2022-12-23T22:02:20.330Z,20.50
2022-12-23T22:04:51.421Z,20.50
2022-12-23T22:07:22.237Z,20.50
2022-12-23T22:09:53.262Z,20.50
2022-12-23T22:12:24.291Z,20.40
2022-12-23T22:17:25.548Z,20.40
2022-12-23T22:19:56.355Z,20.40
2022-12-23T22:22:27.296Z,20.40
2022-12-23T22:24:58.271Z,20.40
2022-12-23T22:27:29.079Z,20.40
2022-12-23T22:30:00.383Z,20.40
2022-12-23T22:32:31.310Z,20.40
2022-12-23T22:35:02.281Z,20.40
2022-12-23T22:37:34.068Z,20.40
2022-12-23T22:40:05.003Z,20.40
2022-12-23T22:42:37.628Z,20.40
2022-12-23T22:45:14.562Z,20.40
2022-12-23T22:47:45.709Z,20.40
2022-12-23T22:50:17.778Z,20.30
2022-12-23T22:52:48.743Z,20.30
2022-12-23T22:55:19.794Z,20.30
2022-12-23T22:57:50.671Z,20.30
2022-12-23T23:00:21.569Z,20.30
2022-12-23T23:02:52.407Z,20.30
2022-12-23T23:05:24.434Z,20.30
2022-12-23T23:07:55.350Z,20.30
2022-12-23T23:10:31.458Z,20.30
2022-12-23T23:13:02.699Z,20.30
2022-12-23T23:15:33.540Z,20.30
2022-12-23T23:18:04.516Z,20.30
2022-12-23T23:20:35.332Z,20.30
2022-12-23T23:23:06.312Z,20.30
2022-12-23T23:25:37.340Z,20.30
2022-12-23T23:28:08.508Z,20.30
2022-12-23T23:30:43.899Z,20.30
2022-12-23T23:33:14.937Z,20.30
2022-12-23T23:35:45.783Z,20.30
2022-12-23T23:38:16.638Z,20.30
2022-12-23T23:40:52.855Z,20.30
2022-12-23T23:43:27.674Z,20.30
2022-12-23T23:46:07.658Z,20.30
2022-12-23T23:48:35.237Z,20.30
2022-12-23T23:51:08.553Z,20.30
2022-12-23T23:53:39.360Z,20.30
2022-12-23T23:56:11.406Z,20.30
2022-12-23T23:58:42.301Z,20.30
